Immokalee, Florida
Current Conditions -  °F | °C
As of 12:35 PM on Saturday 25 Oct 2014 (Local Time) from KIMM Reporting Station
Clear Clear  
Wind Chill: 28°   Ceiling: Unl
Heat Index: 28°   Visibility: 7mi
Dew Point: 16°   Wind: 8mph
Humidity: 48%   Direction: 360°N
Pressure: 29.97"   Gusts: NA
Location:  26.42°N, 81.42°W
Report Text: KIMM 251635Z AUTO 36007KT 7SM CLR 28/16 A2997 RMK A01 P000
Loading
Personal Weather Stations






























Interactive Weather Map
Tropical Storm Tracking
New forecast layout! Learn more

10-Day Weather Forecast

Advertisements
Track Severe Weather on mobile